Darstellungsparameter: Aktuell verwendete Einstellungen:
Skalierung der Graphiken ... ?
xyx+y,   Skalierungsfaktor:      Skalierung: Modus: x, Faktor: 1
Darstellungszeitraum ... ?
Vom - - bis: - -   Zeitraum: 21.11.2008 - 23.11.2008
Min/Max/Avg-Anzeige ... ?
Zeige MMA aktuell
Zeige MMA Monat
Zeige MMA alles
Zeige --A aktuell
Zeige --A Monat
Zeige --A alles
Keine MMA-Anzeige
MMA:
Average (ber die Originaldaten)
MMA-Basis: 17.04.2019 - 19.05.2019
Quicknavigation für Darstellung... ?
Tage:      1T, 2T, 3T, 5T -1T -2T -3T -5T +1T +2T +3T +5T
Wochen: 1W, 2W, 3W -1W -2W -3W +1W +2W +3W
Monate: 1M, 3M, 6M -1M -3M -6M +1M +3M +6M
Jahre:    1J, 3J, 5J, 10J -1J -3J -5J -10J +1J +3J +5J +10J
Nutze für die Darstellung ... ?
Originaldaten oder Mittelwerte auf ...
Stundenbasis Tagesbasis Wochenbasis
Monatsbasis Jahresbasis      Datenbasis: Original-Daten
Darstellen als:
Statistik (Auto) Statistik J:M      Darstellung:
Zur Graphik,    zurück zur Übersicht aller Sensoren.
 
Tabellarische Datenbersicht: ?
 
Sensor: Nr:Datum:Temp:Abs-Feuchte:Windchill:Wind:
Aussen-T/F 1 21-11-2008 00:11:02 8.8 C 6.01 g/m*3 8.8 C 0 km/h
2 21-11-2008 00:23:02 8.9 C 5.96 g/m*3 8.9 C 0 km/h
3 21-11-2008 00:35:02 8.9 C 5.78 g/m*3 8.9 C 0 km/h
4 21-11-2008 00:47:02 8.6 C 5.76 g/m*3 8.6 C 0 km/h
5 21-11-2008 00:59:02 8.8 C 5.83 g/m*3 8.8 C 0 km/h
6 21-11-2008 01:11:02 8.9 C 5.87 g/m*3 8.9 C 0 km/h
7 21-11-2008 01:23:02 9 C 5.82 g/m*3 9 C 0 km/h
8 21-11-2008 01:35:02 8.9 C 5.96 g/m*3 8.9 C 0 km/h
9 21-11-2008 01:47:02 8.9 C 5.96 g/m*3 8.9 C 0 km/h
10 21-11-2008 01:59:02 8.9 C 5.96 g/m*3 8.9 C 0 km/h
11 21-11-2008 02:11:02 8.9 C 5.87 g/m*3 8.9 C 0 km/h
12 21-11-2008 02:23:02 8.9 C 5.78 g/m*3 8.9 C 0 km/h
13 21-11-2008 02:35:03 8.9 C 5.69 g/m*3 8.9 C 0 km/h
14 21-11-2008 02:47:03 9 C 5.64 g/m*3 9 C 0 km/h
15 21-11-2008 02:59:03 8.8 C 5.83 g/m*3 8.8 C 0 km/h
16 21-11-2008 03:11:03 8.7 C 5.88 g/m*3 8.7 C 0 km/h
17 21-11-2008 03:23:03 8.6 C 5.84 g/m*3 8.6 C 0 km/h
18 21-11-2008 03:35:03 8.5 C 5.89 g/m*3 8.5 C 0 km/h
19 21-11-2008 03:47:03 8.6 C 5.84 g/m*3 8.6 C 0 km/h
20 21-11-2008 03:59:03 8.3 C 6.07 g/m*3 8.3 C 0 km/h
21 21-11-2008 04:11:03 7.8 C 6.28 g/m*3 7.8 C 0 km/h
22 21-11-2008 04:23:03 7.5 C 6.32 g/m*3 7.5 C 0 km/h
23 21-11-2008 04:35:03 7.9 C 6.24 g/m*3 7.9 C 0 km/h
24 21-11-2008 04:47:03 8.1 C 6.07 g/m*3 8.1 C 0 km/h
25 21-11-2008 04:59:03 8 C 6.2 g/m*3 8 C 0 km/h
Sensor: Nr:Datum:Temp:Abs-Feuchte:Windchill:Wind:
Aussen-T/F 26 21-11-2008 05:11:03 8 C 6.12 g/m*3 8 C 0 km/h
27 21-11-2008 05:23:03 8.1 C 6.24 g/m*3 8.1 C 0 km/h
28 21-11-2008 05:35:03 7.8 C 6.45 g/m*3 7.8 C 0 km/h
29 21-11-2008 05:47:03 7.6 C 6.53 g/m*3 7.6 C 0 km/h
30 21-11-2008 05:59:03 7.5 C 6.56 g/m*3 7.5 C 0 km/h
31 21-11-2008 06:11:03 7.4 C 6.6 g/m*3 7.4 C 0 km/h
32 21-11-2008 06:23:03 7.5 C 6.64 g/m*3 7.5 C 0 km/h
33 21-11-2008 06:35:04 7.5 C 6.56 g/m*3 7.5 C 0 km/h
34 21-11-2008 06:47:04 7.5 C 6.56 g/m*3 7.5 C 0 km/h
35 21-11-2008 06:59:04 7.5 C 6.56 g/m*3 7.5 C 0 km/h
36 21-11-2008 07:11:03 7.6 C 6.53 g/m*3 7.6 C 0 km/h
37 21-11-2008 07:23:03 7.8 C 6.53 g/m*3 7.8 C 0 km/h
38 21-11-2008 07:35:02 8 C 6.37 g/m*3 8 C 0 km/h
39 21-11-2008 07:47:02 8.1 C 6.24 g/m*3 8.1 C 0 km/h
40 21-11-2008 07:59:02 8.2 C 6.11 g/m*3 8.2 C 0 km/h
41 21-11-2008 08:11:02 8.5 C 6.06 g/m*3 8.5 C 0 km/h
42 21-11-2008 08:23:02 8.7 C 5.88 g/m*3 8.7 C 0 km/h
43 21-11-2008 08:35:02 8.7 C 5.79 g/m*3 8.7 C 0 km/h
44 21-11-2008 08:47:01 6.4 C 5.81 g/m*3 6.4 C 0 km/h
45 21-11-2008 08:59:01 6.5 C 6.07 g/m*3 6.5 C 0 km/h
46 21-11-2008 09:11:02 6.9 C 6.16 g/m*3 6.9 C 0 km/h
47 21-11-2008 09:23:01 7.5 C 6.16 g/m*3 7.5 C 0 km/h
48 21-11-2008 09:35:01 7.4 C 5.65 g/m*3 7.4 C 0 km/h
49 21-11-2008 09:47:01 5.8 C 5.73 g/m*3 5.8 C 0 km/h
50 21-11-2008 09:59:01 5.7 C 5.91 g/m*3 5.7 C 0 km/h
Sensor: Nr:Datum:Temp:Abs-Feuchte:Windchill:Wind:
Aussen-T/F 51 21-11-2008 10:11:02 6.3 C 6.14 g/m*3 6.3 C 0 km/h
52 21-11-2008 10:23:01 6.6 C 6.19 g/m*3 6.6 C 0 km/h
53 21-11-2008 10:35:02 4.9 C 5.67 g/m*3 4.9 C 0 km/h
54 21-11-2008 10:47:02 4.6 C 5.76 g/m*3 4.6 C 0 km/h
55 21-11-2008 10:59:02 4.8 C 5.9 g/m*3 4.8 C 0 km/h
56 21-11-2008 11:11:02 5 C 5.84 g/m*3 5 C 0 km/h
57 21-11-2008 11:23:02 5.2 C 5.85 g/m*3 5.2 C 0 km/h
58 21-11-2008 11:35:02 5.2 C 5.78 g/m*3 5.2 C 0 km/h
59 21-11-2008 11:47:01 5.2 C 5.78 g/m*3 5.2 C 0 km/h
60 21-11-2008 11:59:01 5.4 C 5.44 g/m*3 5.4 C 0 km/h
61 21-11-2008 12:11:02 5.4 C 4.81 g/m*3 5.4 C 0 km/h
62 21-11-2008 12:23:01 5.9 C 4.83 g/m*3 5.9 C 0 km/h
63 21-11-2008 12:35:02 6.6 C 4.91 g/m*3 6.6 C 0 km/h
64 21-11-2008 12:47:02 7 C 4.49 g/m*3 7 C 0 km/h
65 21-11-2008 12:59:02 6.6 C 4.38 g/m*3 6.6 C 0 km/h
66 21-11-2008 13:11:01 5.9 C 4.61 g/m*3 5.9 C 0 km/h
67 21-11-2008 13:23:02 6.3 C 4.37 g/m*3 6.3 C 0 km/h
68 21-11-2008 13:35:02 6.6 C 3.93 g/m*3 6.6 C 0 km/h
69 21-11-2008 13:47:01 5.3 C 4.37 g/m*3 5.3 C 0 km/h
70 21-11-2008 13:59:02 5.1 C 4.31 g/m*3 5.1 C 0 km/h
71 21-11-2008 14:11:01 5.5 C 4.07 g/m*3 5.5 C 0 km/h
72 21-11-2008 14:23:01 5.7 C 3.77 g/m*3 5.7 C 0 km/h
73 21-11-2008 14:35:02 5.4 C 3.77 g/m*3 5.4 C 0 km/h
74 21-11-2008 14:47:02 5.3 C 3.74 g/m*3 5.3 C 0 km/h
75 21-11-2008 14:59:02 5.1 C 3.69 g/m*3 5.1 C 0 km/h
Sensor: Nr:Datum:Temp:Abs-Feuchte:Windchill:Wind:
Aussen-T/F 76 21-11-2008 15:11:02 5.1 C 3.76 g/m*3 5.1 C 0 km/h
77 21-11-2008 15:23:02 2.6 C 4.34 g/m*3 2.6 C 0 km/h
78 21-11-2008 15:35:02 2 C 4.56 g/m*3 2 C 0 km/h
79 21-11-2008 15:47:02 2.1 C 4.87 g/m*3 2.1 C 0 km/h
80 21-11-2008 15:59:02 2.1 C 4.92 g/m*3 2.1 C 0 km/h
81 21-11-2008 16:11:02 2.2 C 5.01 g/m*3 2.2 C 0 km/h
82 21-11-2008 16:23:02 2.4 C 5.08 g/m*3 2.4 C 0 km/h
83 21-11-2008 16:35:03 2.2 C 4.9 g/m*3 2.2 C 0 km/h
84 21-11-2008 16:47:02 2.3 C 4.76 g/m*3 2.3 C 0 km/h
85 21-11-2008 16:59:02 2.5 C 4.66 g/m*3 2.5 C 0 km/h
86 21-11-2008 17:11:02 2.3 C 4.48 g/m*3 2.3 C 0 km/h
87 21-11-2008 17:23:02 2.6 C 4.57 g/m*3 2.6 C 0 km/h
88 21-11-2008 17:35:02 2.6 C 4.57 g/m*3 2.6 C 0 km/h
89 21-11-2008 17:47:02 2.1 C 4.53 g/m*3 2.1 C 0 km/h
90 21-11-2008 17:59:02 2.4 C 4.68 g/m*3 2.4 C 0 km/h
91 21-11-2008 18:11:02 2.2 C 4.39 g/m*3 2.2 C 0 km/h
92 21-11-2008 18:23:02 2.3 C 4.37 g/m*3 2.3 C 0 km/h
93 21-11-2008 18:35:02 2.2 C 4.39 g/m*3 2.2 C 0 km/h
94 21-11-2008 18:47:02 2.1 C 4.53 g/m*3 2.1 C 0 km/h
95 21-11-2008 18:59:02 1.7 C 4.46 g/m*3 1.7 C 0 km/h
96 21-11-2008 19:11:01 1.3 C 4.56 g/m*3 1.3 C 0 km/h
97 21-11-2008 19:23:02 1.3 C 4.61 g/m*3 1.3 C 0 km/h
98 21-11-2008 19:35:02 1 C 4.52 g/m*3 1 C 0 km/h
99 21-11-2008 19:47:02 0.7 C 4.47 g/m*3 0.7 C 0 km/h
100 21-11-2008 19:59:02 0.7 C 4.53 g/m*3 0.7 C 0 km/h
Sensor: Nr:Datum:Temp:Abs-Feuchte:Windchill:Wind:
Aussen-T/F 101 21-11-2008 20:11:02 1 C 4.67 g/m*3 1 C 0 km/h
102 21-11-2008 20:23:02 1.1 C 4.76 g/m*3 1.1 C 0 km/h
103 21-11-2008 20:35:02 1 C 4.72 g/m*3 1 C 0 km/h
104 21-11-2008 20:47:02 0.9 C 4.74 g/m*3 0.9 C 0 km/h
105 21-11-2008 20:59:02 1.1 C 4.6 g/m*3 1.1 C 0 km/h
106 21-11-2008 21:11:02 1.1 C 4.39 g/m*3 1.1 C 0 km/h
107 21-11-2008 21:23:02 1.2 C 4.21 g/m*3 1.2 C 0 km/h
108 21-11-2008 21:35:02 1.2 C 4.1 g/m*3 1.2 C 0 km/h
109 21-11-2008 21:47:02 1.3 C 4.08 g/m*3 1.3 C 0 km/h
110 21-11-2008 21:59:02 1.4 C 4.05 g/m*3 1.4 C 0 km/h
111 21-11-2008 22:11:03 1.4 C 4.11 g/m*3 1.4 C 0 km/h
112 21-11-2008 22:23:02 1.6 C 4.16 g/m*3 1.6 C 0 km/h
113 21-11-2008 22:35:03 1.5 C 4.24 g/m*3 1.5 C 0 km/h
114 21-11-2008 22:47:02 1.5 C 4.3 g/m*3 1.5 C 0 km/h
115 21-11-2008 22:59:02 1.5 C 4.3 g/m*3 1.5 C 0 km/h
116 21-11-2008 23:11:02 1.7 C 4.3 g/m*3 1.7 C 0 km/h
117 21-11-2008 23:23:01 1.8 C 4.33 g/m*3 1.8 C 0 km/h
118 21-11-2008 23:35:02 1.8 C 4.33 g/m*3 1.8 C 0 km/h
119 21-11-2008 23:47:02 2 C 4.28 g/m*3 2 C 0 km/h
120 21-11-2008 23:59:02 2 C 4.22 g/m*3 2 C 0 km/h
121 22-11-2008 00:11:01 2.2 C 4.11 g/m*3 2.2 C 0 km/h
122 22-11-2008 00:23:01 2.1 C 4.2 g/m*3 2.1 C 0 km/h
123 22-11-2008 00:35:01 1.6 C 4.33 g/m*3 1.6 C 0 km/h
124 22-11-2008 00:48:03 1.2 C 4.42 g/m*3 1.2 C 0 km/h
125 22-11-2008 01:00:03 0.6 C 4.39 g/m*3 0.6 C 0 km/h
Sensor: Nr:Datum:Temp:Abs-Feuchte:Windchill:Wind:
Aussen-T/F 126 22-11-2008 01:12:03 0.4 C 4.43 g/m*3 0.4 C 0 km/h
127 22-11-2008 01:24:03 0.3 C 4.45 g/m*3 0.3 C 0 km/h
128 22-11-2008 01:36:03 0.1 C 4.44 g/m*3 0.1 C 0 km/h
129 22-11-2008 01:48:03 0 C 4.41 g/m*3 0 C 0 km/h
130 22-11-2008 02:00:03 0 C 4.41 g/m*3 0 C 0 km/h
131 22-11-2008 02:12:03 0 C 4.41 g/m*3 0 C 0 km/h
132 22-11-2008 02:24:03 -0.1 C 4.38 g/m*3 -0.1 C 0 km/h
133 22-11-2008 02:36:04 0 C 4.41 g/m*3 0 C 0 km/h
134 22-11-2008 02:48:04 0 C 4.41 g/m*3 0 C 0 km/h
135 22-11-2008 03:00:04 0.1 C 4.39 g/m*3 0.1 C 0 km/h
136 22-11-2008 03:12:04 0.2 C 4.37 g/m*3 0.2 C 0 km/h
137 22-11-2008 03:24:04 0.2 C 4.32 g/m*3 0.2 C 0 km/h
138 22-11-2008 03:36:04 0.4 C 4.28 g/m*3 0.4 C 0 km/h
139 22-11-2008 03:48:04 0.3 C 4.16 g/m*3 0.3 C 0 km/h
140 22-11-2008 04:00:04 0.3 C 4.16 g/m*3 0.3 C 0 km/h
141 22-11-2008 04:12:04 0.4 C 4.18 g/m*3 0.4 C 0 km/h
142 22-11-2008 04:24:04 0.5 C 4.16 g/m*3 0.5 C 0 km/h
143 22-11-2008 04:36:04 0.6 C 4.04 g/m*3 0.6 C 0 km/h
144 22-11-2008 04:48:04 0.5 C 3.96 g/m*3 0.5 C 0 km/h
145 22-11-2008 05:00:04 0.4 C 3.93 g/m*3 0.4 C 0 km/h
146 22-11-2008 05:12:04 0.5 C 3.86 g/m*3 0.5 C 0 km/h
147 22-11-2008 05:24:04 0.6 C 3.89 g/m*3 0.6 C 0 km/h
148 22-11-2008 05:36:04 0.7 C 4.02 g/m*3 0.7 C 0 km/h
149 22-11-2008 05:48:04 0.3 C 4.11 g/m*3 0.3 C 0 km/h
150 22-11-2008 06:00:04 -0.1 C 4.19 g/m*3 -0.1 C 0 km/h
Sensor: Nr:Datum:Temp:Abs-Feuchte:Windchill:Wind:
Aussen-T/F 151 22-11-2008 06:12:04 -0.2 C 4.25 g/m*3 -0.2 C 0 km/h
152 22-11-2008 06:24:04 -0.1 C 4.28 g/m*3 -0.1 C 0 km/h
153 22-11-2008 06:36:05 0 C 4.26 g/m*3 0 C 0 km/h
154 22-11-2008 06:48:05 0 C 4.22 g/m*3 0 C 0 km/h
155 22-11-2008 07:00:05 0.1 C 4.1 g/m*3 0.1 C 0 km/h
156 22-11-2008 07:12:05 0.1 C 4 g/m*3 0.1 C 0 km/h
157 22-11-2008 07:24:05 0 C 3.92 g/m*3 0 C 0 km/h
158 22-11-2008 07:36:05 0.3 C 3.81 g/m*3 0.3 C 0 km/h
159 22-11-2008 07:48:05 0.2 C 3.78 g/m*3 0.2 C 0 km/h
160 22-11-2008 08:00:05 0.4 C 3.79 g/m*3 0.4 C 0 km/h
161 22-11-2008 08:12:05 -0.1 C 3.66 g/m*3 -0.1 C 0 km/h
162 22-11-2008 08:24:05 -0.2 C 3.68 g/m*3 -0.2 C 0 km/h
163 22-11-2008 08:36:05 0.2 C 3.73 g/m*3 0.2 C 0 km/h
164 22-11-2008 08:48:05 0.4 C 3.64 g/m*3 0.4 C 0 km/h
165 22-11-2008 09:00:05 0.5 C 3.61 g/m*3 0.5 C 0 km/h
166 22-11-2008 09:12:03 0.6 C 3.64 g/m*3 0.6 C 0 km/h
167 22-11-2008 09:24:03 0.8 C 3.74 g/m*3 0.8 C 0 km/h
168 22-11-2008 09:36:03 0.9 C 3.71 g/m*3 0.9 C 0 km/h
169 22-11-2008 09:48:02 0.7 C 3.71 g/m*3 0.7 C 0 km/h
170 22-11-2008 10:00:02 0.7 C 3.71 g/m*3 0.7 C 0 km/h
171 22-11-2008 10:12:03 0.8 C 3.74 g/m*3 0.8 C 0 km/h
172 22-11-2008 10:24:02 1 C 3.63 g/m*3 1 C 0 km/h
173 22-11-2008 10:36:03 1.2 C 3.63 g/m*3 1.2 C 0 km/h
174 22-11-2008 10:48:02 1.5 C 3.65 g/m*3 1.5 C 0 km/h
175 22-11-2008 11:00:02 1.6 C 3.62 g/m*3 1.6 C 0 km/h
Sensor: Nr:Datum:Temp:Abs-Feuchte:Windchill:Wind:
Aussen-T/F 176 22-11-2008 11:12:02 1.5 C 3.6 g/m*3 1.5 C 0 km/h
177 22-11-2008 11:24:02 1.5 C 3.65 g/m*3 1.5 C 0 km/h
178 22-11-2008 11:36:01 1.9 C 3.7 g/m*3 1.9 C 0 km/h
179 22-11-2008 11:48:02 2.1 C 3.64 g/m*3 2.1 C 0 km/h
180 22-11-2008 12:00:02 1.7 C 3.81 g/m*3 1.7 C 0 km/h
181 22-11-2008 12:12:01 1 C 4.1 g/m*3 1 C 0 km/h
182 22-11-2008 12:24:02 1.7 C 4.03 g/m*3 1.7 C 0 km/h
183 22-11-2008 12:36:01 1.9 C 3.86 g/m*3 1.9 C 0 km/h
184 22-11-2008 12:48:02 2.2 C 3.72 g/m*3 2.2 C 0 km/h
185 22-11-2008 13:00:02 2.2 C 3.72 g/m*3 2.2 C 0 km/h
186 22-11-2008 13:12:01 2.3 C 3.69 g/m*3 2.3 C 0 km/h
187 22-11-2008 13:24:02 2.2 C 3.72 g/m*3 2.2 C 0 km/h
188 22-11-2008 13:36:01 2 C 3.67 g/m*3 2 C 0 km/h
189 22-11-2008 13:48:01 2.2 C 3.72 g/m*3 2.2 C 0 km/h
190 22-11-2008 14:00:01 2.2 C 3.72 g/m*3 2.2 C 0 km/h
191 22-11-2008 14:12:02 2.3 C 3.63 g/m*3 2.3 C 0 km/h
192 22-11-2008 14:24:02 2.5 C 3.74 g/m*3 2.5 C 0 km/h
193 22-11-2008 14:36:01 2.6 C 3.59 g/m*3 2.6 C 0 km/h
194 22-11-2008 14:48:02 2.5 C 3.39 g/m*3 2.5 C 0 km/h
195 22-11-2008 15:00:02 2.6 C 3.47 g/m*3 2.6 C 0 km/h
196 22-11-2008 15:12:02 2.5 C 3.33 g/m*3 2.5 C 0 km/h
197 22-11-2008 15:24:01 2.5 C 3.28 g/m*3 2.5 C 0 km/h
198 22-11-2008 15:36:02 2.2 C 3.27 g/m*3 2.2 C 0 km/h
199 22-11-2008 15:48:02 2.2 C 3.27 g/m*3 2.2 C 0 km/h
200 22-11-2008 16:00:02 2.4 C 3.2 g/m*3 2.4 C 0 km/h
Sensor: Nr:Datum:Temp:Abs-Feuchte:Windchill:Wind:
Aussen-T/F 201 22-11-2008 16:12:02 2.3 C 3.23 g/m*3 2.3 C 0 km/h
202 22-11-2008 16:24:02 2.1 C 3.3 g/m*3 2.1 C 0 km/h
203 22-11-2008 16:36:03 1.8 C 3.4 g/m*3 1.8 C 0 km/h
204 22-11-2008 16:48:02 1.6 C 3.46 g/m*3 1.6 C 0 km/h
205 22-11-2008 17:00:02 1.3 C 3.44 g/m*3 1.3 C 0 km/h
206 22-11-2008 17:12:03 1.3 C 3.5 g/m*3 1.3 C 0 km/h
207 22-11-2008 17:24:02 1.5 C 3.54 g/m*3 1.5 C 0 km/h
208 22-11-2008 17:36:03 1.5 C 3.54 g/m*3 1.5 C 0 km/h
209 22-11-2008 17:48:02 1.5 C 3.54 g/m*3 1.5 C 0 km/h
210 22-11-2008 18:00:02 1.6 C 3.57 g/m*3 1.6 C 0 km/h
211 22-11-2008 18:12:02 1.7 C 3.54 g/m*3 1.7 C 0 km/h
212 22-11-2008 18:24:02 1.6 C 3.57 g/m*3 1.6 C 0 km/h
213 22-11-2008 18:36:02 1.7 C 3.59 g/m*3 1.7 C 0 km/h
214 22-11-2008 18:48:02 1.6 C 3.62 g/m*3 1.6 C 0 km/h
215 22-11-2008 19:00:02 1.7 C 3.54 g/m*3 1.7 C 0 km/h
216 22-11-2008 19:12:01 1.7 C 3.59 g/m*3 1.7 C 0 km/h
217 22-11-2008 19:24:02 1.4 C 3.57 g/m*3 1.4 C 0 km/h
218 22-11-2008 19:36:01 1.4 C 3.63 g/m*3 1.4 C 0 km/h
219 22-11-2008 19:48:02 1.1 C 3.5 g/m*3 1.1 C 0 km/h
220 22-11-2008 20:00:02 0.7 C 3.56 g/m*3 0.7 C 0 km/h
221 22-11-2008 20:12:01 0.9 C 3.61 g/m*3 0.9 C 0 km/h
222 22-11-2008 20:24:02 1.1 C 3.55 g/m*3 1.1 C 0 km/h
223 22-11-2008 20:36:01 1.3 C 3.55 g/m*3 1.3 C 0 km/h
224 22-11-2008 20:48:01 1.3 C 3.6 g/m*3 1.3 C 0 km/h
225 22-11-2008 21:00:01 1.3 C 3.6 g/m*3 1.3 C 0 km/h
Sensor: Nr:Datum:Temp:Abs-Feuchte:Windchill:Wind:
Aussen-T/F 226 22-11-2008 21:12:02 1.2 C 3.58 g/m*3 1.2 C 0 km/h
227 22-11-2008 21:24:01 1.1 C 3.55 g/m*3 1.1 C 0 km/h
228 22-11-2008 21:36:01 1 C 3.53 g/m*3 1 C 0 km/h
229 22-11-2008 21:48:01 0.9 C 3.56 g/m*3 0.9 C 0 km/h
230 22-11-2008 22:00:01 0.7 C 3.51 g/m*3 0.7 C 0 km/h
231 22-11-2008 22:12:02 0.8 C 3.58 g/m*3 0.8 C 0 km/h
232 22-11-2008 22:24:01 0.8 C 3.58 g/m*3 0.8 C 0 km/h
233 22-11-2008 22:36:02 1 C 3.53 g/m*3 1 C 0 km/h
234 22-11-2008 22:48:02 1.1 C 3.5 g/m*3 1.1 C 0 km/h
235 22-11-2008 23:00:02 1 C 3.53 g/m*3 1 C 0 km/h
236 22-11-2008 23:12:03 1 C 3.53 g/m*3 1 C 0 km/h
237 22-11-2008 23:24:02 1.1 C 3.5 g/m*3 1.1 C 0 km/h
238 22-11-2008 23:36:02 1 C 3.53 g/m*3 1 C 0 km/h
239 22-11-2008 23:48:02 0.9 C 3.61 g/m*3 0.9 C 0 km/h
240 23-11-2008 00:00:02 0.8 C 3.58 g/m*3 0.8 C 0 km/h
241 23-11-2008 00:12:02 0.9 C 3.61 g/m*3 0.9 C 0 km/h
242 23-11-2008 00:24:02 0.9 C 3.66 g/m*3 0.9 C 0 km/h
243 23-11-2008 00:36:02 0.8 C 3.74 g/m*3 0.8 C 0 km/h
244 23-11-2008 00:48:02 0.6 C 3.84 g/m*3 0.6 C 0 km/h
245 23-11-2008 01:00:02 0.5 C 3.91 g/m*3 0.5 C 0 km/h
246 23-11-2008 01:12:02 0.4 C 3.93 g/m*3 0.4 C 0 km/h
247 23-11-2008 01:24:02 0.4 C 3.98 g/m*3 0.4 C 0 km/h
248 23-11-2008 01:36:02 0.3 C 4.01 g/m*3 0.3 C 0 km/h
249 23-11-2008 01:48:02 0.1 C 4.05 g/m*3 0.1 C 0 km/h
250 23-11-2008 02:00:02 0.1 C 4.1 g/m*3 0.1 C 0 km/h
Sensor: Nr:Datum:Temp:Abs-Feuchte:Windchill:Wind:
Aussen-T/F 251 23-11-2008 02:12:03 0.2 C 4.18 g/m*3 0.2 C 0 km/h
252 23-11-2008 02:24:02 0.2 C 4.22 g/m*3 0.2 C 0 km/h
253 23-11-2008 02:36:03 0.1 C 4.24 g/m*3 0.1 C 0 km/h
254 23-11-2008 02:48:01 0.1 C 4.29 g/m*3 0.1 C 0 km/h
255 23-11-2008 03:00:01 0.2 C 4.37 g/m*3 0.2 C 0 km/h
256 23-11-2008 03:12:01 0.2 C 4.42 g/m*3 0.2 C 0 km/h
257 23-11-2008 03:24:01 0.3 C 4.5 g/m*3 0.3 C 0 km/h
258 23-11-2008 03:36:01 0.3 C 4.5 g/m*3 0.3 C 0 km/h
259 23-11-2008 03:48:01 0.3 C 4.5 g/m*3 0.3 C 0 km/h
260 23-11-2008 04:00:01 0.5 C 4.61 g/m*3 0.5 C 0 km/h
261 23-11-2008 04:12:02 0.5 C 4.61 g/m*3 0.5 C 0 km/h
262 23-11-2008 04:24:01 0.5 C 4.61 g/m*3 0.5 C 0 km/h
263 23-11-2008 04:36:02 0.5 C 4.61 g/m*3 0.5 C 0 km/h
264 23-11-2008 04:48:01 0.5 C 4.56 g/m*3 0.5 C 0 km/h
265 23-11-2008 05:00:01 0.5 C 4.51 g/m*3 0.5 C 0 km/h
266 23-11-2008 05:12:02 0.6 C 4.49 g/m*3 0.6 C 0 km/h
267 23-11-2008 05:24:01 0.5 C 4.41 g/m*3 0.5 C 0 km/h
268 23-11-2008 05:36:02 0.5 C 4.36 g/m*3 0.5 C 0 km/h
269 23-11-2008 05:48:01 0.5 C 4.36 g/m*3 0.5 C 0 km/h
270 23-11-2008 06:00:01 0.6 C 4.34 g/m*3 0.6 C 0 km/h
271 23-11-2008 06:12:02 0.7 C 4.37 g/m*3 0.7 C 0 km/h
272 23-11-2008 06:24:01 0.7 C 4.37 g/m*3 0.7 C 0 km/h
273 23-11-2008 06:36:02 0.6 C 4.34 g/m*3 0.6 C 0 km/h
274 23-11-2008 06:48:01 0.6 C 4.34 g/m*3 0.6 C 0 km/h
275 23-11-2008 07:00:02 0.6 C 4.39 g/m*3 0.6 C 0 km/h
Sensor: Nr:Datum:Temp:Abs-Feuchte:Windchill:Wind:
Aussen-T/F 276 23-11-2008 07:12:01 0.6 C 4.39 g/m*3 0.6 C 0 km/h
277 23-11-2008 07:24:01 0.6 C 4.44 g/m*3 0.6 C 0 km/h
278 23-11-2008 07:36:01 0.6 C 4.44 g/m*3 0.6 C 0 km/h
279 23-11-2008 07:48:01 0.6 C 4.44 g/m*3 0.6 C 0 km/h
280 23-11-2008 08:00:01 0.6 C 4.49 g/m*3 0.6 C 0 km/h
281 23-11-2008 08:12:02 0.7 C 4.53 g/m*3 0.7 C 0 km/h
282 23-11-2008 08:24:02 0.7 C 4.53 g/m*3 0.7 C 0 km/h
283 23-11-2008 08:36:01 0.8 C 4.56 g/m*3 0.8 C 0 km/h
284 23-11-2008 08:48:01 0.7 C 4.53 g/m*3 0.7 C 0 km/h
285 23-11-2008 09:00:01 0.8 C 4.56 g/m*3 0.8 C 0 km/h
286 23-11-2008 09:12:02 1.1 C 4.55 g/m*3 1.1 C 0 km/h
287 23-11-2008 09:24:01 1.2 C 4.42 g/m*3 1.2 C 0 km/h
288 23-11-2008 09:36:01 1.5 C 4.4 g/m*3 1.5 C 0 km/h
289 23-11-2008 09:48:01 1.6 C 4.33 g/m*3 1.6 C 0 km/h
290 23-11-2008 10:00:01 1.7 C 4.3 g/m*3 1.7 C 0 km/h
291 23-11-2008 10:12:02 1.9 C 4.25 g/m*3 1.9 C 0 km/h
292 23-11-2008 10:24:01 2.1 C 4.2 g/m*3 2.1 C 0 km/h
293 23-11-2008 10:36:02 2 C 4.11 g/m*3 2 C 0 km/h
294 23-11-2008 10:48:02 2.1 C 4.03 g/m*3 2.1 C 0 km/h
295 23-11-2008 11:00:02 2.2 C 4 g/m*3 2.2 C 0 km/h
296 23-11-2008 11:12:01 2.4 C 4 g/m*3 2.4 C 0 km/h
297 23-11-2008 11:24:02 2.5 C 3.97 g/m*3 2.5 C 0 km/h
298 23-11-2008 11:36:02 2.6 C 3.99 g/m*3 2.6 C 0 km/h
299 23-11-2008 11:48:02 2.6 C 3.94 g/m*3 2.6 C 0 km/h
300 23-11-2008 12:00:02 2.5 C 3.85 g/m*3 2.5 C 0 km/h
Sensor: Nr:Datum:Temp:Abs-Feuchte:Windchill:Wind:
Aussen-T/F 301 23-11-2008 12:12:01 2.4 C 3.83 g/m*3 2.4 C 0 km/h
302 23-11-2008 12:24:02 2.4 C 3.83 g/m*3 2.4 C 0 km/h
303 23-11-2008 12:36:02 2.2 C 3.83 g/m*3 2.2 C 0 km/h
304 23-11-2008 12:48:02 2.3 C 3.91 g/m*3 2.3 C 0 km/h
305 23-11-2008 13:00:02 2.3 C 3.86 g/m*3 2.3 C 0 km/h
306 23-11-2008 13:12:01 2.1 C 3.69 g/m*3 2.1 C 0 km/h
307 23-11-2008 13:24:02 1.8 C 3.67 g/m*3 1.8 C 0 km/h
308 23-11-2008 13:36:01 2 C 3.72 g/m*3 2 C 0 km/h
309 23-11-2008 13:48:02 2 C 3.72 g/m*3 2 C 0 km/h
310 23-11-2008 14:00:02 2 C 3.61 g/m*3 2 C 0 km/h
311 23-11-2008 14:12:02 1.8 C 3.56 g/m*3 1.8 C 0 km/h
312 23-11-2008 14:24:02 1.7 C 3.48 g/m*3 1.7 C 0 km/h
313 23-11-2008 14:36:01 1.6 C 3.46 g/m*3 1.6 C 0 km/h
314 23-11-2008 14:48:01 1.6 C 3.46 g/m*3 1.6 C 0 km/h
315 23-11-2008 15:00:01 1.6 C 3.41 g/m*3 1.6 C 0 km/h
316 23-11-2008 15:12:02 1.6 C 3.41 g/m*3 1.6 C 0 km/h
317 23-11-2008 15:24:02 1.6 C 3.46 g/m*3 1.6 C 0 km/h
318 23-11-2008 15:36:01 1.5 C 3.44 g/m*3 1.5 C 0 km/h
319 23-11-2008 15:48:01 1.5 C 3.44 g/m*3 1.5 C 0 km/h
320 23-11-2008 16:00:01 1.5 C 3.44 g/m*3 1.5 C 0 km/h
321 23-11-2008 16:12:02 1.4 C 3.52 g/m*3 1.4 C 0 km/h
322 23-11-2008 16:24:02 1.2 C 3.47 g/m*3 1.2 C 0 km/h
323 23-11-2008 16:36:02 1.2 C 3.53 g/m*3 1.2 C 0 km/h
324 23-11-2008 16:48:02 1.1 C 3.55 g/m*3 1.1 C 0 km/h
325 23-11-2008 17:00:02 1 C 3.58 g/m*3 1 C 0 km/h
Sensor: Nr:Datum:Temp:Abs-Feuchte:Windchill:Wind:
Aussen-T/F 326 23-11-2008 17:12:01 0.8 C 3.74 g/m*3 0.8 C 0 km/h
327 23-11-2008 17:24:02 0.5 C 3.86 g/m*3 0.5 C 0 km/h
328 23-11-2008 17:36:01 0.3 C 4.01 g/m*3 0.3 C 0 km/h
329 23-11-2008 17:48:02 0.1 C 4.15 g/m*3 0.1 C 0 km/h
330 23-11-2008 18:00:02 0.1 C 4.2 g/m*3 0.1 C 0 km/h
331 23-11-2008 18:12:01 0 C 4.22 g/m*3 0 C 0 km/h
332 23-11-2008 18:24:02 0 C 4.26 g/m*3 0 C 0 km/h
333 23-11-2008 18:36:01 0 C 4.26 g/m*3 0 C 0 km/h
334 23-11-2008 18:48:01 0 C 4.26 g/m*3 0 C 0 km/h
335 23-11-2008 19:00:01 -0.1 C 4.23 g/m*3 -0.1 C 0 km/h
336 23-11-2008 19:12:02 -0.2 C 4.21 g/m*3 -0.2 C 0 km/h
337 23-11-2008 19:24:01 -0.2 C 4.16 g/m*3 -0.2 C 0 km/h
338 23-11-2008 19:36:02 -0.2 C 4.16 g/m*3 -0.2 C 0 km/h
339 23-11-2008 19:48:01 -0.2 C 4.16 g/m*3 -0.2 C 0 km/h
340 23-11-2008 20:00:01 -0.2 C 4.16 g/m*3 -0.2 C 0 km/h
341 23-11-2008 20:12:02 -0.2 C 4.21 g/m*3 -0.2 C 0 km/h
342 23-11-2008 20:24:01 -0.2 C 4.21 g/m*3 -0.2 C 0 km/h
343 23-11-2008 20:36:02 -0.2 C 4.16 g/m*3 -0.2 C 0 km/h
344 23-11-2008 20:48:01 -0.1 C 4.19 g/m*3 -0.1 C 0 km/h
345 23-11-2008 21:00:01 -0.1 C 4.19 g/m*3 -0.1 C 0 km/h
346 23-11-2008 21:12:01 -0.1 C 4.19 g/m*3 -0.1 C 0 km/h
347 23-11-2008 21:24:01 -0.1 C 4.14 g/m*3 -0.1 C 0 km/h
348 23-11-2008 21:36:01 -0.1 C 4.14 g/m*3 -0.1 C 0 km/h
349 23-11-2008 21:49:02 0 C 4.17 g/m*3 0 C 0 km/h
350 23-11-2008 22:01:02 0 C 4.17 g/m*3 0 C 0 km/h
Sensor: Nr:Datum:Temp:Abs-Feuchte:Windchill:Wind:
Aussen-T/F 351 23-11-2008 22:13:02 0.1 C 4.2 g/m*3 0.1 C 0 km/h
352 23-11-2008 22:25:02 0.1 C 4.15 g/m*3 0.1 C 0 km/h
353 23-11-2008 22:37:02 0.1 C 4.15 g/m*3 0.1 C 0 km/h
354 23-11-2008 22:49:02 0.1 C 4.15 g/m*3 0.1 C 0 km/h
355 23-11-2008 23:01:02 0.2 C 4.18 g/m*3 0.2 C 0 km/h
356 23-11-2008 23:13:02 0.2 C 4.18 g/m*3 0.2 C 0 km/h
357 23-11-2008 23:25:02 0.2 C 4.22 g/m*3 0.2 C 0 km/h
358 23-11-2008 23:37:02 0.1 C 4.2 g/m*3 0.1 C 0 km/h
359 23-11-2008 23:49:02 0.2 C 4.27 g/m*3 0.2 C 0 km/h

Legende:
   Min
   Max


Maximal/Minimal-Werte vom 17.04.2019 - 19.05.2019

Sensor Min Max Avg
Temp
(Aussen-T/F)
2.2 °C
13-05-2019  06:50:00
26.6 °C
24-04-2019  17:05:00
11.51 °C

Die Daten stammen von einer Davis Vantage Pro 2 Wetter-Station und werden unter Linux mit der Software wview2wettercgi und aufbereitet. Alle Angaben erfolgen ohne Gewähr für ihre Vollständigkeit oder Richtigkeit.
Kontakt: Rainer Krienke krienke@uni-koblenz.de . Meine Webseiten an der Uni Koblenz oder privat.
Version: $Revision: 0.78 $